Holtville, California
Current Conditions -  °F | °C
As of 10:53 PM on Thursday 27 Nov 2014 (Local Time) from KIPL Reporting Station
Clear Clear  
Wind Chill: 54°   Ceiling: Unl
Heat Index: 54°   Visibility: 10mi
Dew Point: 32°   Wind: 3mph
Humidity: 43%   Direction: 240°WSW
Pressure: 30.02"   Gusts: NA
Location:  32.81°N, 115.38°W
Report Text: KIPL 280653Z AUTO 24003KT 10SM CLR 12/00 A3002 RMK AO2 SLP165 T01220000
Loading
Personal Weather Stations






























Interactive Weather Map New forecast layout! Learn more

10-Day Weather Forecast

Advertisements
Track Severe Weather on mobile